Time;durP1;ratioP1;P1;durP2;ratioP2;P2;SDS_P1;SDS_P2;PMS_P1;PMS_P2;Temp;Humidity;BMP_temperature;BMP_pressure;BME280_temperature;BME280_humidity;BME280_pressure;Samples;Min_cycle;Max_cycle;Signal;HPM_P1;HPM_P2
2020/12/19 00:00:08;;;;;;;7.30;4.22;;;;;;;26.87;31.77;96962.16;4949669;28;20152;-33
2020/12/19 00:02:33;;;;;;;12.27;4.68;;;;;;;26.86;31.67;96953.41;4955906;28;20114;-31
2020/12/19 00:04:59;;;;;;;7.85;4.20;;;;;;;26.87;31.79;96954.28;4951391;28;20049;-31
2020/12/19 00:07:24;;;;;;;9.27;4.00;;;;;;;26.86;31.69;96949.94;4949666;28;20047;-34
2020/12/19 00:09:50;;;;;;;8.70;4.20;;;;;;;26.85;31.83;96954.34;4952796;28;20404;-33
2020/12/19 00:12:20;;;;;;;7.07;3.72;;;;;;;26.85;31.80;96949.09;4950814;28;20046;-31
2020/12/19 00:14:46;;;;;;;6.90;3.97;;;;;;;26.85;31.76;96953.53;4952407;28;20047;-31
2020/12/19 00:17:11;;;;;;;10.25;3.97;;;;;;;26.84;31.54;96952.66;4948435;28;20049;-31
2020/12/19 00:19:36;;;;;;;5.50;3.90;;;;;;;26.85;31.79;96943.84;4951477;28;20051;-32
2020/12/19 00:22:02;;;;;;;5.55;3.80;;;;;;;26.85;31.78;96937.75;4949206;28;20766;-33
2020/12/19 00:24:28;;;;;;;8.30;4.28;;;;;;;26.87;31.81;96946.38;4952181;28;20141;-31
2020/12/19 00:26:53;;;;;;;7.75;3.70;;;;;;;26.86;31.81;96939.44;4953095;28;20047;-32
2020/12/19 00:29:18;;;;;;;5.68;3.63;;;;;;;26.85;31.69;96935.13;4951711;28;20408;-33
2020/12/19 00:31:44;;;;;;;10.70;3.58;;;;;;;26.85;31.71;96932.50;4949610;28;20074;-33
2020/12/19 00:34:10;;;;;;;7.40;3.90;;;;;;;26.85;31.73;96925.44;4953415;28;20055;-32
2020/12/19 00:36:35;;;;;;;8.00;4.07;;;;;;;26.86;31.57;96934.19;4951532;28;20038;-31
2020/12/19 00:39:01;;;;;;;6.45;3.50;;;;;;;26.85;31.63;96927.22;4951697;28;20039;-33
2020/12/19 00:41:26;;;;;;;7.05;4.03;;;;;;;26.84;31.63;96915.00;4953765;28;20050;-34
2020/12/19 00:43:52;;;;;;;7.75;3.65;;;;;;;26.84;31.72;96909.72;4951561;28;20030;-36
2020/12/19 00:46:18;;;;;;;6.50;3.50;;;;;;;26.84;31.72;96921.09;4950446;28;20586;-32
2020/12/19 00:48:43;;;;;;;9.30;3.55;;;;;;;26.84;31.57;96920.25;4954397;28;20038;-32
2020/12/19 00:51:13;;;;;;;6.40;3.40;;;;;;;26.84;31.64;96921.09;4945282;28;20047;-33
2020/12/19 00:53:40;;;;;;;7.85;3.50;;;;;;;26.84;31.57;96915.84;4952036;28;20051;-33
2020/12/19 00:56:06;;;;;;;8.05;3.70;;;;;;;26.84;31.63;96905.34;4952698;28;20039;-31
2020/12/19 00:58:31;;;;;;;5.45;3.25;;;;;;;26.83;31.71;96911.53;4949280;28;20039;-32
2020/12/19 01:00:57;;;;;;;5.78;3.50;;;;;;;26.81;31.71;96900.22;4949338;28;20504;-31
2020/12/19 01:03:23;;;;;;;6.05;3.30;;;;;;;26.82;31.62;96896.69;4951995;28;20047;-34
2020/12/19 01:05:48;;;;;;;6.82;3.90;;;;;;;26.82;31.68;96898.47;4948919;28;20042;-33
2020/12/19 01:08:14;;;;;;;9.50;3.47;;;;;;;26.83;31.54;96898.38;4951451;28;20054;-31
2020/12/19 01:10:40;;;;;;;5.20;3.28;;;;;;;26.84;31.58;96894.81;4949414;28;20070;-30
2020/12/19 01:13:06;;;;;;;7.32;3.55;;;;;;;26.83;31.67;96893.13;4955879;28;20035;-31
2020/12/19 01:15:32;;;;;;;5.32;3.53;;;;;;;26.83;31.58;96898.38;4948868;28;20049;-32
2020/12/19 01:17:57;;;;;;;4.18;3.00;;;;;;;26.85;31.65;96907.03;4949771;28;20039;-32
2020/12/19 01:20:23;;;;;;;5.68;3.35;;;;;;;26.84;31.64;96902.69;4951126;28;20047;-34
2020/12/19 01:22:48;;;;;;;5.43;3.10;;;;;;;26.85;31.51;96898.31;4950000;28;20135;-33
2020/12/19 01:25:14;;;;;;;5.32;2.60;;;;;;;26.82;31.58;96896.69;4953162;28;20405;-32
2020/12/19 01:27:39;;;;;;;5.25;3.20;;;;;;;26.82;31.48;96901.94;4958674;28;20051;-31
2020/12/19 01:30:05;;;;;;;12.23;3.25;;;;;;;26.82;31.50;96901.94;4953653;28;20034;-31
2020/12/19 01:32:30;;;;;;;6.05;3.40;;;;;;;26.83;31.51;96906.28;4956773;28;20046;-30
2020/12/19 01:34:56;;;;;;;4.93;3.30;;;;;;;26.83;31.48;96903.66;4953619;28;20043;-33
2020/12/19 01:37:22;;;;;;;5.35;3.45;;;;;;;26.83;31.51;96898.38;4955778;28;20038;-31
2020/12/19 01:39:47;;;;;;;5.30;2.78;;;;;;;26.84;31.59;96899.22;4955628;28;20537;-32
2020/12/19 01:42:13;;;;;;;4.68;3.05;;;;;;;26.82;31.59;96896.69;4952614;28;20205;-31
2020/12/19 01:44:38;;;;;;;8.35;2.90;;;;;;;26.81;31.59;96892.34;4953438;28;20047;-31
2020/12/19 01:47:04;;;;;;;6.32;2.92;;;;;;;26.81;31.57;96900.22;4951549;28;20031;-32
2020/12/19 01:49:30;;;;;;;5.10;3.00;;;;;;;26.81;31.66;96894.16;4968999;28;20046;-32
2020/12/19 01:51:57;;;;;;;6.75;3.17;;;;;;;26.81;31.53;96891.53;4956341;28;20311;-31
2020/12/19 01:54:23;;;;;;;5.90;3.20;;;;;;;26.77;31.55;96885.56;4951932;28;20031;-33
2020/12/19 01:56:54;;;;;;;4.60;2.80;;;;;;;26.79;31.52;96896.00;4937312;28;21069;-31
2020/12/19 01:59:20;;;;;;;;;;;;;;;26.80;31.60;96889.81;4953577;28;20045;-32
2020/12/19 02:01:47;;;;;;;4.95;2.90;;;;;;;26.79;31.50;96886.34;4955048;28;19957;-33
2020/12/19 02:04:13;;;;;;;6.32;3.03;;;;;;;26.68;31.59;96862.41;4971266;28;20027;-30
2020/12/19 02:06:39;;;;;;;4.95;2.60;;;;;;;26.78;31.58;96882.03;4964632;28;20089;-31
2020/12/19 02:09:05;;;;;;;5.68;3.00;;;;;;;26.79;31.53;96885.47;4938513;28;20725;-33
2020/12/19 02:11:30;;;;;;;8.82;3.25;;;;;;;26.79;31.52;96881.09;4952006;28;20062;-33
2020/12/19 02:13:56;;;;;;;5.28;2.75;;;;;;;26.80;31.53;96872.25;4957560;28;20027;-31
2020/12/19 02:16:21;;;;;;;3.95;2.80;;;;;;;26.79;31.51;96875.81;4956919;28;20117;-31
2020/12/19 02:18:47;;;;;;;7.10;2.97;;;;;;;26.78;31.52;96874.13;4967293;28;20458;-32
2020/12/19 02:21:12;;;;;;;5.22;3.00;;;;;;;26.79;31.41;96875.81;4951283;28;20074;-34
2020/12/19 02:23:38;;;;;;;4.72;2.67;;;;;;;26.79;31.51;96870.56;4957319;28;20070;-32
2020/12/19 02:26:04;;;;;;;4.50;2.72;;;;;;;26.80;31.50;96866.13;4953392;28;20547;-32
2020/12/19 02:28:29;;;;;;;4.35;2.72;;;;;;;26.81;31.52;96867.84;4953815;28;20109;-32
2020/12/19 02:30:55;;;;;;;3.83;2.30;;;;;;;26.79;31.60;96867.06;4950181;28;20047;-33
2020/12/19 02:33:20;;;;;;;7.32;3.10;;;;;;;26.79;31.52;96875.81;4955995;28;20031;-31
2020/12/19 02:35:45;;;;;;;4.47;2.78;;;;;;;26.79;31.61;96865.31;4968296;28;20042;-31
2020/12/19 02:38:11;;;;;;;4.97;2.65;;;;;;;26.80;31.63;96866.13;4952903;28;20035;-31
2020/12/19 02:40:36;;;;;;;4.35;2.38;;;;;;;26.79;31.49;96861.81;4952238;28;20516;-31
2020/12/19 02:43:02;;;;;;;5.85;2.97;;;;;;;26.78;31.52;96858.38;4951291;28;20038;-31
2020/12/19 02:45:27;;;;;;;4.05;2.58;;;;;;;26.78;31.63;96855.72;4953372;28;20035;-33
2020/12/19 02:47:52;;;;;;;5.75;2.85;;;;;;;26.78;31.52;96853.09;4955542;28;20042;-30
2020/12/19 02:50:18;;;;;;;5.50;2.80;;;;;;;26.77;31.57;96855.81;4967165;28;20046;-32
2020/12/19 02:52:43;;;;;;;5.28;2.72;;;;;;;26.77;31.46;96856.66;4952894;28;20042;-33
2020/12/19 02:55:09;;;;;;;4.28;2.58;;;;;;;26.78;31.92;96853.09;4956335;28;20135;-35
2020/12/19 02:57:34;;;;;;;4.45;2.60;;;;;;;26.78;31.45;96850.47;4953704;28;20039;-33
2020/12/19 02:59:59;;;;;;;3.72;2.22;;;;;;;26.78;31.40;96853.09;4954580;28;20106;-31
2020/12/19 03:02:25;;;;;;;4.75;2.72;;;;;;;26.76;31.58;96860.22;4954607;28;20054;-30
2020/12/19 03:04:50;;;;;;;4.85;2.33;;;;;;;26.76;31.56;96854.97;4951790;28;20059;-32
2020/12/19 03:07:16;;;;;;;4.35;2.50;;;;;;;26.77;31.54;96861.91;4947855;28;20042;-34
2020/12/19 03:09:42;;;;;;;6.30;2.78;;;;;;;26.77;31.41;96861.91;4952715;28;20034;-34
2020/12/19 03:12:08;;;;;;;3.67;2.47;;;;;;;26.77;31.43;96856.66;4954122;28;20038;-31
2020/12/19 03:14:33;;;;;;;5.65;2.65;;;;;;;26.77;31.41;96855.81;4955191;28;20121;-34
2020/12/19 03:16:59;;;;;;;3.03;2.10;;;;;;;26.78;31.53;96853.09;4949438;28;20038;-33
2020/12/19 03:19:24;;;;;;;5.57;2.40;;;;;;;26.77;31.42;96854.00;4954215;28;20066;-31
2020/12/19 03:21:49;;;;;;;4.32;2.88;;;;;;;26.76;31.56;96854.97;4949891;28;20555;-40
2020/12/19 03:24:15;;;;;;;4.82;2.25;;;;;;;26.76;31.45;96852.31;4952143;28;20479;-33
2020/12/19 03:26:42;;;;;;;5.20;2.60;;;;;;;26.76;31.59;96848.88;4953806;28;20500;-32
2020/12/19 03:29:07;;;;;;;3.63;2.42;;;;;;;26.74;31.50;96856.84;4953288;28;20481;-31
2020/12/19 03:31:33;;;;;;;3.55;2.58;;;;;;;26.74;31.27;96843.69;4948691;28;20047;-30
2020/12/19 03:33:59;;;;;;;3.70;2.58;;;;;;;26.75;31.63;96840.13;4954307;28;20351;-32
2020/12/19 03:36:24;;;;;;;3.38;2.20;;;;;;;26.74;31.43;96841.88;4952106;28;20121;-32
2020/12/19 03:38:50;;;;;;;3.28;2.30;;;;;;;26.74;31.56;96841.06;4949788;28;20381;-35
2020/12/19 03:41:15;;;;;;;4.25;2.38;;;;;;;26.73;31.60;96839.34;4951876;28;20047;-31
2020/12/19 03:43:41;;;;;;;3.33;2.20;;;;;;;26.71;31.44;96842.09;4951714;28;20067;-34
2020/12/19 03:46:06;;;;;;;5.30;2.58;;;;;;;26.71;31.51;96835.97;4960269;28;20051;-34
2020/12/19 03:48:31;;;;;;;2.92;2.15;;;;;;;26.71;31.58;96839.47;4951317;28;20128;-32
2020/12/19 03:50:57;;;;;;;3.08;2.33;;;;;;;26.70;31.55;96829.84;4950346;28;20051;-34
2020/12/19 03:53:23;;;;;;;5.60;2.30;;;;;;;26.70;31.57;96829.03;4954527;28;20058;-31
2020/12/19 03:55:48;;;;;;;5.70;2.33;;;;;;;26.69;31.52;96828.16;4952559;28;20042;-31
2020/12/19 03:58:14;;;;;;;4.22;2.50;;;;;;;26.70;31.58;96821.97;4949846;28;20145;-33
2020/12/19 04:00:39;;;;;;;3.83;2.40;;;;;;;26.69;31.57;96822.06;4951767;28;20047;-32
2020/12/19 04:03:05;;;;;;;5.20;2.85;;;;;;;26.69;31.45;96811.56;4954137;28;20039;-31
2020/12/19 04:05:30;;;;;;;2.58;1.90;;;;;;;26.68;31.49;96815.09;4954143;28;21792;-32
2020/12/19 04:07:56;;;;;;;3.85;2.05;;;;;;;26.70;31.62;96813.25;4949690;28;20540;-31
2020/12/19 04:10:21;;;;;;;6.50;2.15;;;;;;;26.69;31.51;96811.56;4951510;28;20039;-35
2020/12/19 04:12:47;;;;;;;3.10;1.90;;;;;;;26.67;31.59;96818.66;4952892;28;20467;-34
2020/12/19 04:15:12;;;;;;;5.45;2.00;;;;;;;26.65;31.55;96825.81;4952421;28;20057;-34
2020/12/19 04:17:38;;;;;;;4.13;2.17;;;;;;;26.66;31.62;96825.69;4952961;28;20038;-31
2020/12/19 04:20:04;;;;;;;3.55;2.13;;;;;;;26.66;31.61;96820.44;4951220;28;20030;-33
2020/12/19 04:22:30;;;;;;;2.50;1.90;;;;;;;26.67;31.65;96818.66;4950593;28;20046;-33
2020/12/19 04:24:55;;;;;;;2.13;1.73;;;;;;;26.67;31.41;96813.41;4955400;28;20061;-32
2020/12/19 04:27:21;;;;;;;2.35;1.90;;;;;;;26.67;31.50;96818.66;4956336;28;20047;-32
2020/12/19 04:29:47;;;;;;;3.33;1.92;;;;;;;26.66;31.59;96811.72;4952799;28;20049;-32
2020/12/19 04:32:12;;;;;;;2.35;1.90;;;;;;;26.64;31.52;96813.59;4949716;28;20126;-31
2020/12/19 04:34:38;;;;;;;3.90;1.73;;;;;;;26.64;31.64;96814.44;4953884;28;20051;-33
2020/12/19 04:37:04;;;;;;;2.78;1.98;;;;;;;26.66;31.59;96820.44;4952896;28;20396;-33
2020/12/19 04:39:29;;;;;;;2.67;1.88;;;;;;;26.65;31.54;96810.03;4951072;28;20408;-32
2020/12/19 04:41:55;;;;;;;3.08;1.77;;;;;;;26.66;31.53;96809.09;4951720;28;20109;-33
2020/12/19 04:44:20;;;;;;;2.30;1.60;;;;;;;26.66;31.59;96802.03;4951605;28;20110;-34
2020/12/19 04:46:46;;;;;;;2.75;1.52;;;;;;;26.65;31.50;96799.53;4950168;28;20047;-31
2020/12/19 04:49:12;;;;;;;2.85;2.00;;;;;;;26.64;31.73;96801.28;4937331;28;20488;-30
2020/12/19 04:51:37;;;;;;;3.63;1.77;;;;;;;26.65;31.47;96799.53;4951095;28;20093;-32
2020/12/19 04:54:06;;;;;;;2.33;1.63;;;;;;;26.67;31.51;96809.03;4952313;28;20042;-32
2020/12/19 04:56:32;;;;;;;2.58;1.80;;;;;;;26.69;31.60;96806.31;4951346;28;20046;-32
2020/12/19 04:59:00;;;;;;;4.55;1.80;;;;;;;26.68;31.53;96809.84;4950448;28;20718;-35
2020/12/19 05:01:25;;;;;;;2.00;1.65;;;;;;;26.66;31.60;96803.84;4955627;28;20053;-31
2020/12/19 05:03:51;;;;;;;3.10;1.60;;;;;;;26.66;31.47;96806.47;4957604;28;20030;-31
2020/12/19 05:06:24;;;;;;;3.40;1.83;;;;;;;26.66;31.62;96807.31;4957570;28;20876;-32
2020/12/19 05:08:49;;;;;;;2.97;1.83;;;;;;;26.67;31.56;96808.16;4954121;28;20081;-31
2020/12/19 05:11:15;;;;;;;2.35;1.50;;;;;;;26.65;31.50;96807.41;4956505;28;20070;-32
2020/12/19 05:13:42;;;;;;;6.72;1.75;;;;;;;26.65;31.61;96802.16;4953973;28;20053;-32
2020/12/19 05:16:11;;;;;;;2.08;1.50;;;;;;;26.64;31.52;96803.94;4952813;28;20539;-32
2020/12/19 05:18:37;;;;;;;2.10;1.45;;;;;;;26.66;31.53;96801.22;4954845;28;20050;-33
2020/12/19 05:21:04;;;;;;;3.35;1.85;;;;;;;26.65;31.61;96794.28;4957220;28;20043;-31
2020/12/19 05:23:29;;;;;;;3.25;1.70;;;;;;;26.66;31.50;96795.97;4955067;28;20046;-32
2020/12/19 05:25:55;;;;;;;2.65;1.50;;;;;;;26.67;31.53;96792.38;4959967;28;20051;-33
2020/12/19 05:28:22;;;;;;;2.30;1.48;;;;;;;26.68;31.45;96794.06;4953268;28;20100;-34
2020/12/19 05:30:49;;;;;;;2.38;1.70;;;;;;;26.67;31.49;96789.75;4955394;28;20055;-32
2020/12/19 05:33:15;;;;;;;2.38;1.70;;;;;;;26.66;31.36;96785.44;4955051;28;20047;-29
2020/12/19 05:35:41;;;;;;;3.00;1.70;;;;;;;26.67;31.52;96781.88;4971879;28;20054;-34
2020/12/19 05:38:07;;;;;;;2.20;1.60;;;;;;;26.67;31.48;96787.13;4956319;28;20042;-31
2020/12/19 05:40:34;;;;;;;1.67;1.38;;;;;;;26.67;31.33;96789.75;4954178;28;20610;-31
2020/12/19 05:43:00;;;;;;;1.73;1.55;;;;;;;26.65;31.33;96783.75;4956264;28;20100;-32
2020/12/19 05:45:26;;;;;;;2.55;1.60;;;;;;;26.65;31.50;96789.00;4961486;28;20047;-33
2020/12/19 05:47:52;;;;;;;2.17;1.50;;;;;;;26.65;31.34;96789.00;4955008;28;20039;-35
2020/12/19 05:50:22;;;;;;;2.10;1.40;;;;;;;26.63;31.43;96788.25;4956072;28;20053;-31
2020/12/19 05:52:47;;;;;;;2.08;1.40;;;;;;;26.63;31.44;96791.72;4957306;28;20568;-31
2020/12/19 05:55:18;;;;;;;2.28;1.55;;;;;;;26.60;31.57;96790.13;4957662;28;20070;-32
2020/12/19 05:57:44;;;;;;;2.50;1.38;;;;;;;26.59;31.56;96792.84;4952310;28;20042;-33
2020/12/19 06:00:16;;;;;;;1.83;1.20;;;;;;;26.58;31.59;96794.59;4951206;28;20086;-31
2020/12/19 06:02:42;;;;;;;1.70;1.40;;;;;;;26.58;31.56;96794.59;4957407;28;20101;-34
2020/12/19 06:05:15;;;;;;;2.42;1.75;;;;;;;26.57;31.63;96798.16;4956442;28;20448;-33
2020/12/19 06:07:43;;;;;;;2.42;1.58;;;;;;;26.58;31.51;96799.84;4953886;28;20046;-34
2020/12/19 06:10:13;;;;;;;1.65;1.27;;;;;;;26.45;31.45;96777.81;4954304;28;20466;-31
2020/12/19 06:12:50;;;;;;;2.92;1.40;;;;;;;26.44;31.66;96781.41;4954881;28;20035;-33
2020/12/19 06:15:45;;;;;;;1.42;1.27;;;;;;;26.55;31.59;96789.50;4950976;28;20493;-32
2020/12/19 06:18:48;;;;;;;2.05;1.33;;;;;;;26.56;31.57;96801.75;4968526;28;20109;-32
2020/12/19 06:21:14;;;;;;;1.75;1.20;;;;;;;26.55;31.57;96802.66;4954045;28;20082;-32
2020/12/19 06:23:40;;;;;;;1.73;1.30;;;;;;;26.55;31.65;96805.28;4953974;28;20070;-34
2020/12/19 06:26:05;;;;;;;1.92;1.45;;;;;;;26.54;31.63;96803.59;4948734;28;20035;-32
2020/12/19 06:28:40;;;;;;;1.75;1.40;;;;;;;26.55;31.53;96801.81;4950034;28;20053;-32
2020/12/19 06:31:06;;;;;;;1.88;1.40;;;;;;;26.54;31.63;96803.59;4952745;28;20530;-33
2020/12/19 06:33:35;;;;;;;4.18;2.50;;;;;;;26.54;30.92;96798.34;4952162;28;20039;-30
2020/12/19 06:36:16;;;;;;;4.95;2.65;;;;;;;26.52;31.12;96802.84;4953806;28;20075;-31
2020/12/19 06:38:49;;;;;;;2.08;1.77;;;;;;;26.50;31.27;96807.31;4950423;28;21011;-33
2020/12/19 06:41:42;;;;;;;5.00;2.03;;;;;;;26.50;31.33;96809.13;4967665;28;20098;-30
2020/12/19 06:44:11;;;;;;;5.45;2.30;;;;;;;26.47;31.43;96813.59;4950611;28;20050;-35
2020/12/19 06:46:37;;;;;;;5.22;2.00;;;;;;;26.47;31.42;96810.13;4953897;28;20043;-34
2020/12/19 06:49:24;;;;;;;4.75;2.10;;;;;;;26.46;31.46;96813.69;4952747;28;20045;-34
2020/12/19 06:51:59;;;;;;;4.07;1.75;;;;;;;26.45;31.49;96807.59;4951933;28;20023;-36
2020/12/19 06:54:40;;;;;;;3.85;1.95;;;;;;;26.45;31.48;96810.22;4948974;28;20163;-32
2020/12/19 06:57:30;;;;;;;4.05;2.08;;;;;;;26.44;31.42;96808.53;4953416;28;20142;-34
2020/12/19 07:00:15;;;;;;;4.55;1.92;;;;;;;26.43;31.55;96805.97;4950032;28;20563;-34
2020/12/19 07:02:57;;;;;;;2.92;1.70;;;;;;;26.44;31.64;96813.78;4970738;28;20055;-34
2020/12/19 07:05:29;;;;;;;3.75;2.00;;;;;;;26.45;31.62;96814.63;4953589;28;20054;-32
2020/12/19 07:08:16;;;;;;;2.22;1.42;;;;;;;26.46;31.54;96816.31;4967435;28;20066;-33
2020/12/19 07:10:42;;;;;;;4.55;1.60;;;;;;;26.46;31.41;96811.91;4966212;28;20047;-31
2020/12/19 07:13:07;;;;;;;1.73;1.45;;;;;;;26.47;31.37;96813.59;4952170;28;20582;-31
2020/12/19 07:15:43;;;;;;;2.17;1.75;;;;;;;26.47;31.53;96813.59;4952010;28;20571;-32
2020/12/19 07:18:25;;;;;;;2.97;1.60;;;;;;;26.46;31.42;96814.53;4952031;28;20050;-33
2020/12/19 07:20:58;;;;;;;3.92;1.70;;;;;;;26.46;31.44;96811.91;4957244;28;20095;-33
2020/12/19 07:23:23;;;;;;;2.25;1.67;;;;;;;26.45;31.41;96818.09;4954061;28;20548;-34
2020/12/19 07:25:49;;;;;;;3.53;1.52;;;;;;;26.46;31.49;96822.41;4952957;28;20149;-31
2020/12/19 07:28:15;;;;;;;1.48;1.35;;;;;;;26.46;31.55;96826.81;4951084;28;20035;-32
2020/12/19 07:30:40;;;;;;;4.32;1.95;;;;;;;26.47;31.34;96831.16;4951036;28;20053;-35
2020/12/19 07:33:07;;;;;;;1.67;1.58;;;;;;;26.47;31.50;96828.53;4967041;28;22940;-31
2020/12/19 07:35:32;;;;;;;3.08;1.80;;;;;;;26.47;31.48;96837.25;4953035;28;20050;-31
2020/12/19 07:37:58;;;;;;;2.95;1.63;;;;;;;26.46;31.43;96829.44;4957345;28;20105;-33
2020/12/19 07:40:23;;;;;;;3.50;1.60;;;;;;;26.47;31.43;96839.88;4953205;28;20785;-32
2020/12/19 07:43:16;;;;;;;3.80;1.88;;;;;;;26.47;31.54;96839.03;4953922;28;20110;-35
2020/12/19 07:45:42;;;;;;;3.75;1.83;;;;;;;26.47;31.57;96839.03;4955290;28;20520;-34
2020/12/19 07:48:08;;;;;;;2.38;1.50;;;;;;;26.47;31.44;96846.94;4954478;28;20054;-33
2020/12/19 07:50:34;;;;;;;1.52;1.40;;;;;;;26.44;31.61;96839.22;4953694;28;20049;-32
2020/12/19 07:52:59;;;;;;;3.33;1.60;;;;;;;26.44;31.62;96839.22;4955084;28;20038;-32
2020/12/19 07:55:25;;;;;;;24.15;2.97;;;;;;;26.46;31.68;96842.59;4953418;28;20038;-34
2020/12/19 07:57:57;;;;;;;14.35;2.75;;;;;;;26.47;31.87;96839.03;4953299;28;20125;-34
2020/12/19 08:00:23;;;;;;;16.75;3.75;;;;;;;26.46;31.02;96834.69;4953626;28;20038;-34
2020/12/19 08:02:49;;;;;;;14.00;3.65;;;;;;;26.44;30.71;96840.06;4954179;28;20146;-39
2020/12/19 08:05:15;;;;;;;14.52;3.75;;;;;;;26.42;30.65;96841.06;4952731;28;20553;-33
2020/12/19 08:07:41;;;;;;;14.52;3.55;;;;;;;26.38;30.27;96834.31;4953028;28;20050;-32
2020/12/19 08:10:07;;;;;;;10.05;2.85;;;;;;;26.38;30.33;96850.91;4953335;28;20192;-33
2020/12/19 08:12:33;;;;;;;35.45;3.70;;;;;;;26.42;30.03;96854.19;4950659;28;20122;-33
2020/12/19 08:15:11;;;;;;;7.50;3.20;;;;;;;26.46;30.05;96847.84;4950766;28;20113;-33
2020/12/19 08:17:48;;;;;;;8.77;4.40;;;;;;;26.42;27.42;96852.41;4959335;28;20447;-36
2020/12/19 08:20:14;;;;;;;10.02;3.28;;;;;;;26.42;29.98;96841.06;4955453;28;20034;-35
2020/12/19 08:22:40;;;;;;;14.18;2.75;;;;;;;26.45;30.68;96846.16;4970719;28;20059;-35
2020/12/19 08:25:05;;;;;;;16.60;3.42;;;;;;;26.46;31.13;96846.06;4940840;28;20050;-36
2020/12/19 08:27:40;;;;;;;9.57;2.83;;;;;;;26.50;31.29;96844.09;4954429;28;20824;-32
2020/12/19 08:30:24;;;;;;;8.30;2.30;;;;;;;26.54;31.54;96848.25;4953057;28;20031;-34
2020/12/19 08:32:50;;;;;;;9.23;2.67;;;;;;;26.56;31.55;96848.19;4948222;28;20401;-33
2020/12/19 08:35:17;;;;;;;11.52;2.60;;;;;;;26.55;31.45;96836.81;4956669;28;20049;-34
2020/12/19 08:37:43;;;;;;;8.73;2.70;;;;;;;26.57;31.76;96842.84;4955666;28;20130;-32
2020/12/19 08:40:16;;;;;;;11.93;2.35;;;;;;;26.58;31.80;96847.16;4958085;28;20496;-33
2020/12/19 08:42:42;;;;;;;10.10;2.58;;;;;;;26.60;31.88;96850.56;4953213;28;20051;-34
2020/12/19 08:45:20;;;;;;;10.23;2.40;;;;;;;26.63;32.08;96844.28;4962371;28;20752;-32
2020/12/19 08:47:46;;;;;;;10.18;2.25;;;;;;;26.66;32.00;96851.16;4957212;28;20042;-33
2020/12/19 08:50:13;;;;;;;6.40;2.10;;;;;;;26.56;32.13;96830.66;4960339;28;20042;-34
2020/12/19 08:52:39;;;;;;;13.55;2.13;;;;;;;26.75;31.97;96848.00;4957107;28;20046;-41
2020/12/19 08:55:05;;;;;;;7.28;2.35;;;;;;;26.78;32.08;96853.09;4970123;28;20385;-33
2020/12/19 08:57:33;;;;;;;8.35;1.83;;;;;;;26.81;31.87;96858.16;4957494;28;20049;-34
2020/12/19 09:00:10;;;;;;;4.78;2.20;;;;;;;26.85;31.83;96859.69;4958294;28;20030;-33
2020/12/19 09:02:37;;;;;;;7.68;2.17;;;;;;;26.87;31.66;96868.34;4958670;28;20085;-34
2020/12/19 09:05:02;;;;;;;6.40;2.60;;;;;;;26.90;31.53;96866.47;4952831;28;20161;-35
2020/12/19 09:07:28;;;;;;;4.68;2.15;;;;;;;26.93;31.55;96871.56;4965900;28;20053;-39
2020/12/19 09:09:54;;;;;;;3.70;2.17;;;;;;;26.92;31.43;96869.88;4957022;28;20831;-34
2020/12/19 09:12:21;;;;;;;8.48;2.20;;;;;;;26.95;31.48;96864.47;4953999;28;20085;-33
2020/12/19 09:14:48;;;;;;;5.18;2.30;;;;;;;26.96;31.34;96861.75;4952410;28;20781;-34
2020/12/19 09:17:27;;;;;;;6.45;3.30;;;;;;;26.98;27.49;96870.41;4954825;28;20097;-33
2020/12/19 09:20:00;;;;;;;9.88;3.38;;;;;;;27.01;27.10;96869.38;4966596;28;20038;-33
2020/12/19 09:22:25;;;;;;;4.88;2.97;;;;;;;27.02;27.03;96875.47;4957254;28;20465;-33
2020/12/19 09:24:51;;;;;;;4.18;2.67;;;;;;;27.04;27.18;96874.44;4953509;28;20077;-33
2020/12/19 09:27:17;;;;;;;3.70;2.60;;;;;;;27.05;27.70;96878.81;4955650;28;20062;-34
2020/12/19 09:29:43;;;;;;;11.15;2.90;;;;;;;27.06;27.82;96874.38;4954221;28;20390;-35
2020/12/19 09:32:08;;;;;;;5.93;2.70;;;;;;;27.06;28.23;96877.84;4953883;28;20978;-33
2020/12/19 09:34:34;;;;;;;6.75;2.70;;;;;;;27.07;28.29;96874.28;4952497;28;20039;-33
2020/12/19 09:37:00;;;;;;;4.90;2.45;;;;;;;27.07;28.57;96876.91;4953627;28;20067;-34
2020/12/19 09:39:26;;;;;;;6.10;2.45;;;;;;;27.09;28.64;96875.06;4952095;28;20524;-35
2020/12/19 09:41:51;;;;;;;5.05;2.25;;;;;;;27.08;28.83;96873.34;4957622;28;20043;-37
2020/12/19 09:44:17;;;;;;;4.45;2.22;;;;;;;27.09;28.93;96872.44;4953413;28;20774;-34
2020/12/19 09:46:45;;;;;;;4.93;2.30;;;;;;;27.10;29.23;96868.84;4951947;28;20612;-32
2020/12/19 09:49:11;;;;;;;7.53;3.25;;;;;;;27.03;26.74;96867.50;4945363;28;20046;-34
2020/12/19 09:51:36;;;;;;;14.43;3.22;;;;;;;26.96;27.52;96871.44;4952446;28;20049;-35
2020/12/19 09:54:02;;;;;;;5.40;2.53;;;;;;;26.92;28.80;96872.50;4949265;28;20042;-37
2020/12/19 09:56:28;;;;;;;16.38;2.53;;;;;;;26.89;29.54;96870.91;4954518;28;20043;-33
2020/12/19 09:58:54;;;;;;;6.85;2.20;;;;;;;26.86;29.12;96869.28;4959509;28;20050;-33
2020/12/19 10:01:20;;;;;;;5.07;2.15;;;;;;;26.86;29.42;96855.28;4955408;28;20162;-32
2020/12/19 10:03:45;;;;;;;21.02;2.75;;;;;;;26.57;29.55;96818.34;4951964;28;20047;-30
2020/12/19 10:06:16;;;;;;;14.50;2.80;;;;;;;26.82;29.69;96864.28;4953412;28;20054;-36
2020/12/19 10:08:42;;;;;;;19.10;2.40;;;;;;;26.81;30.47;96863.44;4955033;28;20559;-32
2020/12/19 10:11:08;;;;;;;19.33;2.75;;;;;;;26.85;30.52;96856.22;4952834;28;20051;-34
2020/12/19 10:13:35;;;;;;;16.83;2.78;;;;;;;26.90;30.55;96855.97;4951873;28;20038;-35
2020/12/19 10:16:01;;;;;;;9.45;2.60;;;;;;;26.93;30.51;96859.25;4946773;28;20047;-33
2020/12/19 10:18:27;;;;;;;17.33;2.50;;;;;;;26.97;30.58;96857.34;4954583;28;20046;-34
2020/12/19 10:20:52;;;;;;;11.65;2.22;;;;;;;27.01;30.66;96850.97;4953032;28;20500;-35
2020/12/19 10:23:18;;;;;;;9.93;2.30;;;;;;;27.04;30.55;96850.78;4958467;28;20074;-35
2020/12/19 10:25:44;;;;;;;9.60;2.28;;;;;;;27.07;30.85;96842.72;4963434;28;20079;-33
2020/12/19 10:28:10;;;;;;;7.93;2.45;;;;;;;27.10;30.91;96841.69;4966666;28;20088;-33
2020/12/19 10:30:36;;;;;;;8.65;2.80;;;;;;;27.12;30.98;96840.66;4963942;28;20609;-33
2020/12/19 10:33:02;;;;;;;12.15;2.50;;;;;;;27.15;30.92;96847.53;4959270;28;20039;-35
2020/12/19 10:35:28;;;;;;;12.30;2.88;;;;;;;27.17;31.02;96840.41;4965906;28;20039;-32
2020/12/19 10:37:53;;;;;;;6.40;2.38;;;;;;;27.17;31.00;96836.94;4968141;28;20049;-35
2020/12/19 10:40:19;;;;;;;10.85;2.38;;;;;;;27.18;31.14;96834.22;4958357;28;20118;-33
2020/12/19 10:42:45;;;;;;;5.85;2.30;;;;;;;27.19;31.29;96829.81;4968280;28;20123;-33
2020/12/19 10:45:11;;;;;;;8.25;2.08;;;;;;;27.20;31.36;96834.13;4957697;28;20125;-34
2020/12/19 10:47:36;;;;;;;7.47;2.20;;;;;;;27.19;31.42;96829.81;4959761;28;20041;-34
2020/12/19 10:50:03;;;;;;;8.93;2.30;;;;;;;27.18;31.37;96822.81;4964321;28;20053;-34
2020/12/19 10:52:28;;;;;;;7.25;2.05;;;;;;;27.15;31.53;96823.03;4981992;28;20058;-37
2020/12/19 10:54:54;;;;;;;6.70;2.30;;;;;;;27.15;31.45;96823.03;4965660;28;20413;-32
2020/12/19 10:57:20;;;;;;;8.02;2.55;;;;;;;27.12;29.89;96819.63;4967235;28;20153;-34
2020/12/19 10:59:45;;;;;;;10.35;4.07;;;;;;;26.90;22.88;96825.25;4968697;28;20153;-35
2020/12/19 11:02:12;;;;;;;6.68;4.30;;;;;;;26.60;22.02;96813.78;4957584;28;20129;-37
2020/12/19 11:04:38;;;;;;;4.63;3.00;;;;;;;26.26;20.94;96799.88;4954822;28;20034;-31
2020/12/19 11:07:04;;;;;;;4.30;3.00;;;;;;;26.01;22.22;96810.84;4957968;28;20097;-32
2020/12/19 11:09:30;;;;;;;5.70;3.20;;;;;;;25.93;24.08;96808.63;4959470;28;20964;-34
2020/12/19 11:11:55;;;;;;;3.95;2.78;;;;;;;25.92;25.17;96806.91;4955122;28;20122;-36
2020/12/19 11:14:22;;;;;;;11.10;3.65;;;;;;;25.98;26.32;96811.00;4960897;28;20047;-33
2020/12/19 11:16:47;;;;;;;11.93;3.97;;;;;;;26.02;27.12;96809.91;4956129;28;20039;-32
2020/12/19 11:19:13;;;;;;;6.85;3.40;;;;;;;26.06;27.63;96804.41;4961329;28;20093;-33
2020/12/19 11:21:44;;;;;;;8.32;3.40;;;;;;;26.10;26.84;96800.66;4963215;28;20129;-33
2020/12/19 11:24:11;;;;;;;;;;;;;;;26.15;27.92;96799.56;4965017;28;20046;-32
2020/12/19 11:26:37;;;;;;;7.90;3.42;;;;;;;26.21;28.13;96796.63;4966430;28;19925;-33
2020/12/19 11:29:02;;;;;;;9.27;3.20;;;;;;;26.28;28.39;96792.75;4958093;28;20051;-32
2020/12/19 11:31:28;;;;;;;12.75;3.35;;;;;;;26.33;28.72;96788.09;4958334;28;20053;-33